createdAt,value
2019-06-15T00:00:05.577Z,0.00
2019-06-15T00:01:05.601Z,0.00
2019-06-15T00:02:05.628Z,0.00
2019-06-15T00:03:05.652Z,0.00
2019-06-15T00:04:05.675Z,0.00
2019-06-15T00:05:05.702Z,0.00
2019-06-15T00:06:05.733Z,0.00
2019-06-15T00:07:05.753Z,0.00
2019-06-15T00:08:05.780Z,0.00
2019-06-15T00:09:05.809Z,0.00
2019-06-15T00:10:05.831Z,0.00
2019-06-15T00:11:05.855Z,0.00
2019-06-15T00:12:05.892Z,0.00
2019-06-15T00:13:05.981Z,0.00
2019-06-15T00:14:05.975Z,0.00
2019-06-15T00:15:06.016Z,0.00
2019-06-15T00:16:06.032Z,0.00
2019-06-15T00:17:06.035Z,0.00
2019-06-15T00:18:06.031Z,0.00
2019-06-15T00:19:06.059Z,0.00
2019-06-15T00:20:06.086Z,0.00
2019-06-15T00:21:06.106Z,0.00
2019-06-15T00:22:06.135Z,0.00
2019-06-15T00:23:06.159Z,0.00
2019-06-15T00:24:06.186Z,0.00
2019-06-15T00:25:06.209Z,0.00
2019-06-15T00:26:06.238Z,0.00
2019-06-15T00:27:06.260Z,0.00
2019-06-15T00:28:06.284Z,0.00
2019-06-15T00:29:06.317Z,0.00
2019-06-15T00:30:06.336Z,0.00
2019-06-15T00:31:06.361Z,0.00
2019-06-15T00:32:06.384Z,0.00
2019-06-15T00:33:06.411Z,0.00
2019-06-15T00:34:06.437Z,0.00
2019-06-15T00:35:06.464Z,0.00
2019-06-15T00:36:06.487Z,0.00
2019-06-15T00:37:06.515Z,0.00
2019-06-15T00:38:06.542Z,0.00
2019-06-15T00:39:06.567Z,0.00
2019-06-15T00:40:06.590Z,0.00
2019-06-15T00:41:06.614Z,0.00
2019-06-15T00:42:06.644Z,0.00
2019-06-15T00:43:06.666Z,0.00
2019-06-15T00:44:06.694Z,0.00
2019-06-15T00:45:06.715Z,0.00
2019-06-15T00:46:06.753Z,0.00
2019-06-15T00:47:06.770Z,0.00
2019-06-15T00:48:06.792Z,0.00
2019-06-15T00:49:06.817Z,0.00
2019-06-15T00:50:06.843Z,0.00
2019-06-15T00:51:06.866Z,0.00
2019-06-15T00:52:06.890Z,0.00
2019-06-15T00:53:06.916Z,0.00
2019-06-15T00:54:06.943Z,0.00
2019-06-15T00:55:06.976Z,0.00
2019-06-15T00:56:06.995Z,0.00
2019-06-15T00:57:07.023Z,0.00
2019-06-15T00:58:07.048Z,0.00
2019-06-15T00:59:07.070Z,0.00
2019-06-15T01:00:07.095Z,0.00
2019-06-15T01:01:07.121Z,0.00
2019-06-15T01:02:07.146Z,0.00
2019-06-15T01:03:07.170Z,0.00
2019-06-15T01:04:07.199Z,0.00
2019-06-15T01:05:07.219Z,0.00
2019-06-15T01:06:07.249Z,0.00
2019-06-15T01:07:07.271Z,0.00
2019-06-15T01:08:07.298Z,0.00
2019-06-15T01:09:07.321Z,0.00
2019-06-15T01:10:07.345Z,0.00
2019-06-15T01:11:07.372Z,0.00
2019-06-15T01:12:07.403Z,0.00
2019-06-15T01:13:07.426Z,0.00
2019-06-15T01:14:07.447Z,0.00
2019-06-15T01:15:07.473Z,0.00
2019-06-15T01:16:07.501Z,0.00
2019-06-15T01:17:07.519Z,0.00
2019-06-15T01:18:07.547Z,0.00
2019-06-15T01:19:07.578Z,0.00
2019-06-15T01:20:07.604Z,0.00
2019-06-15T01:21:07.618Z,0.00
2019-06-15T01:22:07.645Z,0.00
2019-06-15T01:23:07.675Z,0.00
2019-06-15T01:24:07.700Z,0.00
2019-06-15T01:25:07.723Z,0.00
2019-06-15T01:26:07.749Z,0.00
2019-06-15T01:27:07.773Z,0.00
2019-06-15T01:28:07.878Z,0.00
2019-06-15T01:29:07.878Z,0.00
2019-06-15T01:30:07.886Z,0.00
2019-06-15T01:31:07.930Z,0.00
2019-06-15T01:32:07.938Z,0.00
2019-06-15T01:33:07.930Z,0.00
2019-06-15T01:34:07.949Z,0.00
2019-06-15T01:35:07.975Z,0.00
2019-06-15T01:36:08.001Z,0.00
2019-06-15T01:37:08.023Z,0.00
2019-06-15T01:38:08.049Z,0.00
2019-06-15T01:39:08.074Z,0.00
2019-06-15T01:40:08.100Z,0.00
2019-06-15T01:41:08.121Z,0.00
2019-06-15T01:42:08.149Z,0.00
2019-06-15T01:43:08.175Z,0.00
2019-06-15T01:44:08.207Z,0.00
2019-06-15T01:45:08.221Z,0.00
2019-06-15T01:46:08.251Z,0.00
2019-06-15T01:47:08.276Z,0.00
2019-06-15T01:48:08.301Z,0.00
2019-06-15T01:49:08.351Z,0.00
2019-06-15T01:50:08.350Z,0.00
2019-06-15T01:51:08.375Z,0.00
2019-06-15T01:52:08.405Z,0.00
2019-06-15T01:53:08.425Z,0.00
2019-06-15T01:54:08.449Z,0.00
2019-06-15T01:55:19.909Z,0.00
2019-06-15T01:56:08.501Z,0.00
2019-06-15T01:57:08.526Z,0.00
2019-06-15T01:58:08.551Z,0.00
2019-06-15T01:59:08.577Z,0.00
2019-06-15T02:00:08.602Z,0.00
2019-06-15T02:01:08.623Z,0.00
2019-06-15T02:02:08.649Z,0.00
2019-06-15T02:03:08.678Z,0.00
2019-06-15T02:04:08.701Z,0.00
2019-06-15T02:05:08.725Z,0.00
2019-06-15T02:06:08.750Z,0.00
2019-06-15T02:07:08.774Z,0.00
2019-06-15T02:08:08.802Z,0.00
2019-06-15T02:09:08.826Z,0.00
2019-06-15T02:10:08.850Z,0.00
2019-06-15T02:11:08.878Z,0.00
2019-06-15T02:12:08.907Z,0.00
2019-06-15T02:13:08.973Z,0.00
2019-06-15T02:14:08.954Z,0.00
2019-06-15T02:15:08.978Z,0.00
2019-06-15T02:16:09.000Z,0.00
2019-06-15T02:17:09.030Z,0.00
2019-06-15T02:18:09.047Z,0.00
2019-06-15T02:19:09.076Z,0.00
2019-06-15T02:20:09.099Z,0.00
2019-06-15T02:21:09.120Z,0.00
2019-06-15T02:22:09.147Z,0.00
2019-06-15T02:23:09.173Z,0.00
2019-06-15T02:24:09.200Z,0.00
2019-06-15T02:25:09.221Z,0.00
2019-06-15T02:26:09.250Z,0.00
2019-06-15T02:27:09.279Z,0.00
2019-06-15T02:28:09.299Z,0.00
2019-06-15T02:29:09.323Z,0.00
2019-06-15T02:30:09.349Z,0.00
2019-06-15T02:31:09.385Z,0.00
2019-06-15T02:32:09.400Z,0.00
2019-06-15T02:33:09.429Z,0.00
2019-06-15T02:34:09.451Z,0.00
2019-06-15T02:35:09.475Z,0.00
2019-06-15T02:36:09.500Z,0.00
2019-06-15T02:37:09.523Z,0.00
2019-06-15T02:38:09.548Z,0.00
2019-06-15T02:39:09.570Z,0.00
2019-06-15T02:40:09.598Z,0.00
2019-06-15T02:41:09.623Z,0.00
2019-06-15T02:42:09.646Z,0.00
2019-06-15T02:43:09.675Z,0.00
2019-06-15T02:44:09.709Z,0.00
2019-06-15T02:45:09.791Z,0.00
2019-06-15T02:46:09.785Z,0.00
2019-06-15T02:47:09.854Z,0.00
2019-06-15T02:48:09.838Z,0.00
2019-06-15T02:49:09.845Z,0.00
2019-06-15T02:50:09.847Z,0.00
2019-06-15T02:51:09.872Z,0.00
2019-06-15T02:52:09.942Z,0.00
2019-06-15T02:53:09.928Z,0.00
2019-06-15T02:54:09.946Z,0.00
2019-06-15T02:55:09.970Z,0.00
2019-06-15T02:56:09.996Z,0.00
2019-06-15T02:57:10.022Z,0.00
2019-06-15T02:58:10.046Z,5.63
2019-06-15T02:59:10.074Z,5.63
2019-06-15T03:00:10.093Z,5.63
2019-06-15T03:01:10.121Z,5.63
2019-06-15T03:02:10.146Z,5.63
2019-06-15T03:03:10.172Z,5.63
2019-06-15T03:04:10.195Z,5.63
2019-06-15T03:05:10.253Z,11.25
2019-06-15T03:06:10.245Z,11.25
2019-06-15T03:07:10.271Z,11.25
2019-06-15T03:08:10.323Z,11.25
2019-06-15T03:09:10.319Z,16.88
2019-06-15T03:10:10.346Z,16.88
2019-06-15T03:11:10.371Z,16.88
2019-06-15T03:12:10.396Z,22.50
2019-06-15T03:13:10.419Z,22.50
2019-06-15T03:14:10.444Z,22.50
2019-06-15T03:15:10.466Z,28.13
2019-06-15T03:16:10.493Z,28.13
2019-06-15T03:17:10.517Z,28.13
2019-06-15T03:18:10.546Z,33.75
2019-06-15T03:19:10.568Z,33.75
2019-06-15T03:20:10.592Z,33.75
2019-06-15T03:21:10.620Z,33.75
2019-06-15T03:22:10.645Z,33.75
2019-06-15T03:23:10.665Z,33.75
2019-06-15T03:24:10.696Z,28.13
2019-06-15T03:25:10.718Z,28.13
2019-06-15T03:26:10.741Z,28.13
2019-06-15T03:27:10.770Z,28.13
2019-06-15T03:28:10.791Z,22.50
2019-06-15T03:29:10.819Z,22.50
2019-06-15T03:30:10.843Z,22.50
2019-06-15T03:31:10.869Z,22.50
2019-06-15T03:32:10.891Z,22.50
2019-06-15T03:33:10.917Z,28.13
2019-06-15T03:34:10.968Z,28.13
2019-06-15T03:35:10.969Z,28.13
2019-06-15T03:36:10.992Z,33.75
2019-06-15T03:37:11.013Z,33.75
2019-06-15T03:38:11.040Z,33.75
2019-06-15T03:39:11.063Z,33.75
2019-06-15T03:40:11.092Z,33.75
2019-06-15T03:41:11.112Z,33.75
2019-06-15T03:42:11.139Z,39.38
2019-06-15T03:43:11.162Z,39.38
2019-06-15T03:44:11.186Z,39.38
2019-06-15T03:45:11.213Z,39.38
2019-06-15T03:46:11.236Z,39.38
2019-06-15T03:47:11.268Z,39.38
2019-06-15T03:48:11.298Z,45.00
2019-06-15T03:49:11.315Z,45.00
2019-06-15T03:50:11.335Z,45.00
2019-06-15T03:51:11.360Z,45.00
2019-06-15T03:52:11.384Z,45.00
2019-06-15T03:53:11.409Z,45.00
2019-06-15T03:54:11.432Z,45.00
2019-06-15T03:55:11.459Z,45.00
2019-06-15T03:56:21.180Z,50.63
2019-06-15T03:57:11.506Z,50.63
2019-06-15T03:58:11.530Z,56.25
2019-06-15T03:59:11.556Z,61.88
2019-06-15T04:00:11.585Z,67.50
2019-06-15T04:01:11.632Z,73.13
2019-06-15T04:02:11.692Z,78.75
2019-06-15T04:03:11.709Z,84.38
2019-06-15T04:04:11.749Z,90.00
2019-06-15T04:05:11.751Z,90.00
2019-06-15T04:06:11.751Z,90.00
2019-06-15T04:07:11.751Z,90.00
2019-06-15T04:08:11.778Z,84.38
2019-06-15T04:09:11.802Z,78.75
2019-06-15T04:10:11.827Z,73.13
2019-06-15T04:11:11.852Z,73.13
2019-06-15T04:12:11.877Z,73.13
2019-06-15T04:13:11.899Z,78.75
2019-06-15T04:14:11.925Z,84.38
2019-06-15T04:15:11.949Z,90.00
2019-06-15T04:16:11.979Z,95.63
2019-06-15T04:17:12.004Z,101.25
2019-06-15T04:18:12.022Z,106.88
2019-06-15T04:19:12.049Z,118.13
2019-06-15T04:20:12.077Z,123.75
2019-06-15T04:21:12.101Z,123.75
2019-06-15T04:22:12.125Z,129.38
2019-06-15T04:23:12.145Z,135.00
2019-06-15T04:24:12.171Z,135.00
2019-06-15T04:25:12.205Z,135.00
2019-06-15T04:26:12.221Z,140.63
2019-06-15T04:27:12.246Z,146.25
2019-06-15T04:28:12.272Z,146.25
2019-06-15T04:29:12.296Z,151.88
2019-06-15T04:30:12.321Z,157.50
2019-06-15T04:31:12.347Z,163.13
2019-06-15T04:32:12.369Z,168.75
2019-06-15T04:33:12.430Z,180.00
2019-06-15T04:34:12.421Z,191.25
2019-06-15T04:35:12.444Z,202.50
2019-06-15T04:36:12.470Z,230.63
2019-06-15T04:37:12.495Z,264.38
2019-06-15T04:38:12.518Z,275.63
2019-06-15T04:39:12.544Z,275.63
2019-06-15T04:40:12.571Z,270.00
2019-06-15T04:41:12.595Z,264.38
2019-06-15T04:42:12.620Z,270.00
2019-06-15T04:43:12.646Z,275.63
2019-06-15T04:44:12.672Z,292.50
2019-06-15T04:45:12.694Z,309.38
2019-06-15T04:46:12.721Z,326.25
2019-06-15T04:47:12.747Z,331.88
2019-06-15T04:48:12.826Z,337.50
2019-06-15T04:49:12.795Z,337.50
2019-06-15T04:50:12.820Z,348.75
2019-06-15T04:51:12.882Z,348.75
2019-06-15T04:52:12.898Z,348.75
2019-06-15T04:53:14.834Z,343.13
2019-06-15T04:54:12.923Z,331.88
2019-06-15T04:55:12.952Z,326.25
2019-06-15T04:56:12.976Z,315.00
2019-06-15T04:57:12.999Z,303.75
2019-06-15T04:58:13.033Z,292.50
2019-06-15T04:59:13.051Z,281.25
2019-06-15T05:00:13.076Z,270.00
2019-06-15T05:01:13.099Z,264.38
2019-06-15T05:02:13.126Z,253.13
2019-06-15T05:03:13.155Z,247.50
2019-06-15T05:04:13.186Z,247.50
2019-06-15T05:05:13.203Z,253.13
2019-06-15T05:06:13.233Z,270.00
2019-06-15T05:07:13.254Z,286.88
2019-06-15T05:08:13.291Z,309.38
2019-06-15T05:09:13.310Z,326.25
2019-06-15T05:10:13.332Z,315.00
2019-06-15T05:11:13.363Z,343.13
2019-06-15T05:12:13.387Z,376.88
2019-06-15T05:13:13.409Z,382.50
2019-06-15T05:14:13.436Z,393.75
2019-06-15T05:15:13.463Z,410.63
2019-06-15T05:16:13.486Z,416.25
2019-06-15T05:17:13.522Z,433.13
2019-06-15T05:18:13.599Z,455.63
2019-06-15T05:19:13.607Z,534.38
2019-06-15T05:20:13.652Z,523.13
2019-06-15T05:21:13.659Z,528.75
2019-06-15T05:22:13.658Z,523.13
2019-06-15T05:23:13.667Z,483.75
2019-06-15T05:24:13.693Z,500.63
2019-06-15T05:25:13.716Z,517.50
2019-06-15T05:26:13.744Z,382.50
2019-06-15T05:27:13.776Z,371.25
2019-06-15T05:28:13.797Z,365.63
2019-06-15T05:29:13.821Z,371.25
2019-06-15T05:30:13.851Z,444.38
2019-06-15T05:31:13.879Z,393.75
2019-06-15T05:32:13.904Z,427.50
2019-06-15T05:33:13.934Z,444.38
2019-06-15T05:34:13.954Z,540.00
2019-06-15T05:35:13.981Z,523.13
2019-06-15T05:36:14.007Z,511.88
2019-06-15T05:37:14.032Z,551.25
2019-06-15T05:38:14.060Z,573.75
2019-06-15T05:39:14.086Z,579.38
2019-06-15T05:40:14.113Z,635.63
2019-06-15T05:41:15.788Z,618.75
2019-06-15T05:42:14.167Z,618.75
2019-06-15T05:43:14.191Z,652.50
2019-06-15T05:44:14.220Z,646.88
2019-06-15T05:45:14.254Z,641.25
2019-06-15T05:46:14.269Z,635.63
2019-06-15T05:47:14.295Z,641.25
2019-06-15T05:48:14.327Z,601.88
2019-06-15T05:49:14.351Z,579.38
2019-06-15T05:50:14.380Z,534.38
2019-06-15T05:51:14.425Z,517.50
2019-06-15T05:52:14.432Z,511.88
2019-06-15T05:53:14.457Z,523.13
2019-06-15T05:54:14.483Z,534.38
2019-06-15T05:55:14.510Z,551.25
2019-06-15T05:56:14.538Z,568.13
2019-06-15T05:57:21.551Z,568.13
2019-06-15T05:58:14.589Z,562.50
2019-06-15T05:59:14.617Z,562.50
2019-06-15T06:00:14.644Z,590.63
2019-06-15T06:01:14.670Z,630.00
2019-06-15T06:02:14.697Z,635.63
2019-06-15T06:03:14.724Z,691.88
2019-06-15T06:04:14.764Z,703.13
2019-06-15T06:05:14.777Z,742.50
2019-06-15T06:06:14.807Z,810.00
2019-06-15T06:07:14.832Z,793.13
2019-06-15T06:08:14.860Z,770.63
2019-06-15T06:09:14.890Z,787.50
2019-06-15T06:10:14.912Z,939.38
2019-06-15T06:11:14.957Z,961.88
2019-06-15T06:12:15.005Z,871.88
2019-06-15T06:13:14.991Z,916.88
2019-06-15T06:14:15.021Z,950.63
2019-06-15T06:15:15.046Z,978.75
2019-06-15T06:16:15.080Z,973.13
2019-06-15T06:17:15.102Z,849.38
2019-06-15T06:18:15.131Z,1276.88
2019-06-15T06:19:15.156Z,770.63
2019-06-15T06:20:15.185Z,765.00
2019-06-15T06:21:15.212Z,1350.00
2019-06-15T06:22:15.242Z,877.50
2019-06-15T06:23:15.265Z,1051.88
2019-06-15T06:24:15.296Z,928.13
2019-06-15T06:25:15.323Z,1248.75
2019-06-15T06:26:15.388Z,793.13
2019-06-15T06:27:15.431Z,1271.25
2019-06-15T06:28:15.411Z,995.63
2019-06-15T06:29:15.494Z,770.63
2019-06-15T06:30:15.506Z,821.25
2019-06-15T06:31:15.517Z,1091.25
2019-06-15T06:32:15.570Z,748.13
2019-06-15T06:33:15.572Z,731.25
2019-06-15T06:34:15.576Z,759.38
2019-06-15T06:35:15.606Z,781.88
2019-06-15T06:36:15.633Z,849.38
2019-06-15T06:37:15.662Z,916.88
2019-06-15T06:38:15.716Z,871.88
2019-06-15T06:39:15.718Z,916.88
2019-06-15T06:40:15.751Z,1018.13
2019-06-15T06:41:15.778Z,1091.25
2019-06-15T06:42:15.806Z,950.63
2019-06-15T06:43:15.833Z,1254.38
2019-06-15T06:44:15.861Z,1316.25
2019-06-15T06:45:15.892Z,1597.50
2019-06-15T06:46:15.922Z,1378.13
2019-06-15T06:47:16.003Z,1389.38
2019-06-15T06:48:15.981Z,1265.63
2019-06-15T06:49:16.007Z,1861.88
2019-06-15T06:50:16.032Z,2025.00
2019-06-15T06:51:16.065Z,2053.13
2019-06-15T06:52:16.093Z,2058.75
2019-06-15T06:53:16.125Z,1974.38
2019-06-15T06:54:16.151Z,2160.00
2019-06-15T06:55:16.184Z,2137.50
2019-06-15T06:56:16.216Z,2008.13
2019-06-15T06:57:16.247Z,1710.00
2019-06-15T06:58:16.278Z,1158.75
2019-06-15T06:59:16.308Z,1299.38
2019-06-15T07:00:16.340Z,1063.13
2019-06-15T07:01:16.370Z,945.00
2019-06-15T07:02:16.401Z,916.88
2019-06-15T07:03:16.431Z,1051.88
2019-06-15T07:04:16.465Z,1209.38
2019-06-15T07:05:16.497Z,1063.13
2019-06-15T07:06:16.528Z,1035.00
2019-06-15T07:07:16.560Z,1057.50
2019-06-15T07:08:16.594Z,1271.25
2019-06-15T07:09:16.621Z,1237.50
2019-06-15T07:10:16.652Z,1299.38
2019-06-15T07:11:16.684Z,1440.00
2019-06-15T07:12:16.717Z,1327.50
2019-06-15T07:13:16.748Z,911.25
2019-06-15T07:14:16.777Z,832.50
2019-06-15T07:15:16.810Z,798.75
2019-06-15T07:16:16.841Z,770.63
2019-06-15T07:17:16.869Z,776.25
2019-06-15T07:18:16.901Z,804.38
2019-06-15T07:19:16.931Z,832.50
2019-06-15T07:20:16.965Z,765.00
2019-06-15T07:21:16.995Z,736.88
2019-06-15T07:22:17.033Z,731.25
2019-06-15T07:23:17.055Z,725.63
2019-06-15T07:24:17.098Z,720.00
2019-06-15T07:25:17.117Z,742.50
2019-06-15T07:26:17.148Z,776.25
2019-06-15T07:27:17.177Z,759.38
2019-06-15T07:28:17.209Z,765.00
2019-06-15T07:29:17.286Z,798.75
2019-06-15T07:30:17.276Z,855.00
2019-06-15T07:31:17.300Z,939.38
2019-06-15T07:32:17.329Z,939.38
2019-06-15T07:33:17.437Z,945.00
2019-06-15T07:34:17.447Z,900.00
2019-06-15T07:35:17.449Z,826.88
2019-06-15T07:36:17.495Z,793.13
2019-06-15T07:37:17.490Z,770.63
2019-06-15T07:38:17.507Z,781.88
2019-06-15T07:39:17.538Z,804.38
2019-06-15T07:40:17.568Z,815.63
2019-06-15T07:41:17.597Z,821.25
2019-06-15T07:42:17.633Z,843.75
2019-06-15T07:43:17.657Z,860.63
2019-06-15T07:44:17.690Z,928.13
2019-06-15T07:45:17.715Z,950.63
2019-06-15T07:46:17.771Z,1299.38
2019-06-15T07:47:17.777Z,1113.75
2019-06-15T07:48:17.809Z,1198.13
2019-06-15T07:49:17.835Z,1068.75
2019-06-15T07:50:17.863Z,2188.13
2019-06-15T07:51:17.901Z,1856.25
2019-06-15T07:52:17.929Z,1895.63
2019-06-15T07:53:17.955Z,1912.50
2019-06-15T07:54:17.985Z,2334.38
2019-06-15T07:55:18.015Z,2266.88
2019-06-15T07:56:18.046Z,2266.88
2019-06-15T07:57:18.077Z,2255.63
2019-06-15T07:58:24.480Z,2244.38
2019-06-15T07:59:18.141Z,2199.38
2019-06-15T08:00:18.179Z,2351.25
2019-06-15T08:01:18.215Z,2351.25
2019-06-15T08:02:18.254Z,2373.75
2019-06-15T08:03:18.273Z,2368.13
2019-06-15T08:04:18.305Z,1794.38
2019-06-15T08:05:18.340Z,1929.38
2019-06-15T08:06:18.373Z,1873.13
2019-06-15T08:07:18.402Z,2677.50
2019-06-15T08:08:18.440Z,2733.75
2019-06-15T08:09:18.469Z,1766.25
2019-06-15T08:10:18.501Z,1119.38
2019-06-15T08:11:18.535Z,950.63
2019-06-15T08:12:18.573Z,916.88
2019-06-15T08:13:18.606Z,956.25
2019-06-15T08:14:18.641Z,1006.88
2019-06-15T08:15:18.675Z,1074.38
2019-06-15T08:16:18.706Z,1490.63
2019-06-15T08:17:18.742Z,1816.88
2019-06-15T08:18:18.775Z,2491.88
2019-06-15T08:19:18.807Z,1923.75
2019-06-15T08:20:18.839Z,1653.75
2019-06-15T08:21:18.874Z,1546.88
2019-06-15T08:22:18.914Z,1653.75
2019-06-15T08:23:18.941Z,1468.13
2019-06-15T08:24:18.980Z,1125.00
2019-06-15T08:25:19.047Z,1327.50
2019-06-15T08:26:19.040Z,1749.38
2019-06-15T08:27:19.078Z,1704.38
2019-06-15T08:28:19.114Z,1704.38
2019-06-15T08:29:19.146Z,1395.00
2019-06-15T08:30:19.176Z,990.00
2019-06-15T08:31:19.212Z,939.38
2019-06-15T08:32:19.247Z,1366.88
2019-06-15T08:33:19.327Z,1091.25
2019-06-15T08:34:19.363Z,945.00
2019-06-15T08:35:19.382Z,1400.63
2019-06-15T08:36:19.425Z,2520.00
2019-06-15T08:37:19.429Z,2542.50
2019-06-15T08:38:19.443Z,1743.75
2019-06-15T08:39:19.478Z,1445.63
2019-06-15T08:40:19.512Z,1535.63
2019-06-15T08:41:19.544Z,2047.50
2019-06-15T08:42:19.578Z,2638.13
2019-06-15T08:43:19.615Z,2621.25
2019-06-15T08:44:19.647Z,2660.63
2019-06-15T08:45:19.682Z,2615.63
2019-06-15T08:46:19.715Z,2593.13
2019-06-15T08:47:19.747Z,2593.13
2019-06-15T08:48:19.782Z,2660.63
2019-06-15T08:49:19.827Z,2778.75
2019-06-15T08:50:19.853Z,2790.00
2019-06-15T08:51:19.893Z,2795.63
2019-06-15T08:52:19.922Z,2846.25
2019-06-15T08:53:19.957Z,2891.25
2019-06-15T08:54:19.992Z,2885.63
2019-06-15T08:55:20.031Z,2857.50
2019-06-15T08:56:20.064Z,2773.13
2019-06-15T08:57:20.103Z,2761.88
2019-06-15T08:58:20.134Z,2790.00
2019-06-15T08:59:20.174Z,2767.50
2019-06-15T09:00:20.212Z,2778.75
2019-06-15T09:01:20.310Z,2823.75
2019-06-15T09:02:20.285Z,2812.50
2019-06-15T09:03:20.324Z,2812.50
2019-06-15T09:04:20.357Z,2773.13
2019-06-15T09:05:20.413Z,2778.75
2019-06-15T09:06:20.436Z,2688.75
2019-06-15T09:07:20.472Z,2745.00
2019-06-15T09:08:20.508Z,2846.25
2019-06-15T09:09:20.547Z,2548.13
2019-06-15T09:10:20.583Z,2137.50
2019-06-15T09:11:20.622Z,1828.13
2019-06-15T09:12:20.658Z,1659.38
2019-06-15T09:13:20.702Z,1783.13
2019-06-15T09:14:20.735Z,2711.25
2019-06-15T09:15:20.777Z,2570.63
2019-06-15T09:16:20.810Z,2621.25
2019-06-15T09:17:20.851Z,2840.63
2019-06-15T09:18:20.884Z,2964.38
2019-06-15T09:19:20.946Z,3003.75
2019-06-15T09:20:20.961Z,2936.25
2019-06-15T09:21:21.002Z,2857.50
2019-06-15T09:22:21.039Z,2925.00
2019-06-15T09:23:21.076Z,2885.63
2019-06-15T09:24:21.118Z,3020.63
2019-06-15T09:25:21.153Z,3043.13
2019-06-15T09:26:21.192Z,2953.13
2019-06-15T09:27:21.293Z,3037.50
2019-06-15T09:28:21.298Z,3003.75
2019-06-15T09:29:21.378Z,2896.88
2019-06-15T09:30:21.369Z,3183.75
2019-06-15T09:31:21.387Z,3228.75
2019-06-15T09:32:21.426Z,3200.63
2019-06-15T09:33:21.463Z,3166.88
2019-06-15T09:34:21.516Z,3228.75
2019-06-15T09:35:21.543Z,3116.25
2019-06-15T09:36:21.585Z,3228.75
2019-06-15T09:37:21.624Z,2913.75
2019-06-15T09:38:21.665Z,3065.63
2019-06-15T09:39:21.702Z,2818.13
2019-06-15T09:40:21.751Z,3718.13
2019-06-15T09:41:21.791Z,3600.00
2019-06-15T09:42:21.821Z,3549.38
2019-06-15T09:43:21.861Z,3712.50
2019-06-15T09:44:21.902Z,3791.25
2019-06-15T09:45:21.941Z,3628.13
2019-06-15T09:46:21.982Z,2570.63
2019-06-15T09:47:22.024Z,1760.63
2019-06-15T09:48:22.062Z,928.13
2019-06-15T09:49:22.102Z,1608.75
2019-06-15T09:50:22.141Z,2671.88
2019-06-15T09:51:22.181Z,3600.00
2019-06-15T09:52:22.222Z,3864.38
2019-06-15T09:53:22.259Z,3105.00
2019-06-15T09:54:22.303Z,4280.63
2019-06-15T09:55:22.341Z,4151.25
2019-06-15T09:56:22.385Z,4353.75
2019-06-15T09:57:22.422Z,3380.63
2019-06-15T09:58:22.462Z,3026.25
2019-06-15T09:59:25.903Z,3571.88
2019-06-15T10:00:22.543Z,2407.50
2019-06-15T10:01:22.581Z,2064.38
2019-06-15T10:02:22.622Z,1957.50
2019-06-15T10:03:22.666Z,2098.13
2019-06-15T10:04:22.707Z,2615.63
2019-06-15T10:05:22.741Z,3223.13
2019-06-15T10:06:22.785Z,1681.88
2019-06-15T10:07:22.823Z,1912.50
2019-06-15T10:08:22.866Z,1665.00
2019-06-15T10:09:22.900Z,2250.00
2019-06-15T10:10:22.942Z,1530.00
2019-06-15T10:11:22.980Z,2553.75
2019-06-15T10:12:23.020Z,1530.00
2019-06-15T10:13:23.058Z,1659.38
2019-06-15T10:14:23.098Z,1676.25
2019-06-15T10:15:23.144Z,3605.63
2019-06-15T10:16:23.246Z,1631.25
2019-06-15T10:17:23.261Z,1580.63
2019-06-15T10:18:23.302Z,1918.13
2019-06-15T10:19:23.301Z,1485.00
2019-06-15T10:20:23.339Z,1479.38
2019-06-15T10:21:23.372Z,1608.75
2019-06-15T10:22:23.411Z,1665.00
2019-06-15T10:23:23.453Z,2199.38
2019-06-15T10:24:23.494Z,2390.63
2019-06-15T10:25:23.529Z,1513.13
2019-06-15T10:26:23.568Z,1462.50
2019-06-15T10:27:23.606Z,1147.50
2019-06-15T10:28:23.649Z,1091.25
2019-06-15T10:29:23.682Z,1091.25
2019-06-15T10:30:23.720Z,1209.38
2019-06-15T10:31:23.757Z,1215.00
2019-06-15T10:32:23.797Z,1299.38
2019-06-15T10:33:23.834Z,1231.88
2019-06-15T10:34:23.875Z,1186.88
2019-06-15T10:35:23.907Z,1175.63
2019-06-15T10:36:23.946Z,1175.63
2019-06-15T10:37:23.989Z,1192.50
2019-06-15T10:38:24.019Z,1192.50
2019-06-15T10:39:24.053Z,1147.50
2019-06-15T10:40:24.094Z,1119.38
2019-06-15T10:41:24.131Z,1125.00
2019-06-15T10:42:24.170Z,1136.25
2019-06-15T10:43:24.214Z,1141.88
2019-06-15T10:44:24.283Z,1136.25
2019-06-15T10:45:24.279Z,1102.50
2019-06-15T10:46:24.311Z,1085.63
2019-06-15T10:47:24.346Z,1051.88
2019-06-15T10:48:24.384Z,1029.38
2019-06-15T10:49:24.417Z,1001.25
2019-06-15T10:50:24.453Z,995.63
2019-06-15T10:51:24.490Z,973.13
2019-06-15T10:52:24.526Z,961.88
2019-06-15T10:53:24.560Z,961.88
2019-06-15T10:54:24.596Z,984.38
2019-06-15T10:55:24.630Z,967.50
2019-06-15T10:56:24.677Z,961.88
2019-06-15T10:57:24.700Z,978.75
2019-06-15T10:58:24.734Z,1186.88
2019-06-15T10:59:24.771Z,990.00
2019-06-15T11:00:24.805Z,984.38
2019-06-15T11:01:24.836Z,978.75
2019-06-15T11:02:24.874Z,950.63
2019-06-15T11:03:24.910Z,928.13
2019-06-15T11:04:24.944Z,922.50
2019-06-15T11:05:24.984Z,939.38
2019-06-15T11:06:25.012Z,984.38
2019-06-15T11:07:25.047Z,1001.25
2019-06-15T11:08:25.088Z,1046.25
2019-06-15T11:09:25.180Z,1023.75
2019-06-15T11:10:25.175Z,1029.38
2019-06-15T11:11:25.230Z,1006.88
2019-06-15T11:12:25.237Z,984.38
2019-06-15T11:13:25.256Z,961.88
2019-06-15T11:14:25.287Z,967.50
2019-06-15T11:15:25.322Z,967.50
2019-06-15T11:16:25.356Z,984.38
2019-06-15T11:17:25.387Z,978.75
2019-06-15T11:18:25.434Z,1001.25
2019-06-15T11:19:25.465Z,1209.38
2019-06-15T11:20:25.491Z,1023.75
2019-06-15T11:21:25.526Z,1046.25
2019-06-15T11:22:25.560Z,1091.25
2019-06-15T11:23:25.594Z,1170.00
2019-06-15T11:24:25.627Z,1333.13
2019-06-15T11:25:25.666Z,1254.38
2019-06-15T11:26:25.723Z,1282.50
2019-06-15T11:27:25.817Z,1321.88
2019-06-15T11:28:25.765Z,1333.13
2019-06-15T11:29:25.799Z,1355.63
2019-06-15T11:30:25.833Z,1321.88
2019-06-15T11:31:25.868Z,1395.00
2019-06-15T11:32:25.901Z,1473.75
2019-06-15T11:33:25.935Z,1350.00
2019-06-15T11:34:25.968Z,1395.00
2019-06-15T11:35:26.008Z,1535.63
2019-06-15T11:36:26.040Z,2317.50
2019-06-15T11:37:26.072Z,3583.13
2019-06-15T11:38:26.110Z,2469.38
2019-06-15T11:39:26.143Z,2238.75
2019-06-15T11:40:26.178Z,1850.63
2019-06-15T11:41:26.212Z,1760.63
2019-06-15T11:42:26.247Z,1923.75
2019-06-15T11:43:26.283Z,1755.00
2019-06-15T11:44:26.319Z,1608.75
2019-06-15T11:45:26.355Z,1518.75
2019-06-15T11:46:26.389Z,1558.13
2019-06-15T11:47:26.430Z,1771.88
2019-06-15T11:48:26.462Z,1732.50
2019-06-15T11:49:26.496Z,1850.63
2019-06-15T11:50:26.533Z,1648.13
2019-06-15T11:51:26.570Z,1845.00
2019-06-15T11:52:26.606Z,1850.63
2019-06-15T11:53:26.641Z,1833.75
2019-06-15T11:54:26.676Z,1957.50
2019-06-15T11:55:38.604Z,3420.00
2019-06-15T11:56:26.777Z,3116.25
2019-06-15T11:57:26.781Z,2874.38
2019-06-15T11:58:26.839Z,2722.50
2019-06-15T11:59:26.860Z,2503.13
2019-06-15T12:00:31.125Z,2458.13
2019-06-15T12:01:26.937Z,2413.13
2019-06-15T12:02:26.987Z,2334.38
2019-06-15T12:03:27.010Z,2356.88
2019-06-15T12:04:27.104Z,2306.25
2019-06-15T12:05:27.111Z,2317.50
2019-06-15T12:06:27.224Z,2317.50
2019-06-15T12:07:27.170Z,2413.13
2019-06-15T12:08:27.215Z,2919.38
2019-06-15T12:09:27.241Z,3386.25
2019-06-15T12:10:27.284Z,3819.38
2019-06-15T12:11:27.322Z,4095.00
2019-06-15T12:12:27.365Z,4190.63
2019-06-15T12:13:27.403Z,4410.00
2019-06-15T12:14:27.447Z,4387.50
2019-06-15T12:15:27.487Z,4258.13
2019-06-15T12:16:27.525Z,2936.25
2019-06-15T12:17:27.564Z,2806.88
2019-06-15T12:18:27.612Z,2930.63
2019-06-15T12:19:27.651Z,1951.88
2019-06-15T12:20:27.688Z,3864.38
2019-06-15T12:21:27.733Z,3538.13
2019-06-15T12:22:27.876Z,1850.63
2019-06-15T12:23:27.813Z,2593.13
2019-06-15T12:24:27.854Z,3571.88
2019-06-15T12:25:27.897Z,4494.38
2019-06-15T12:26:27.934Z,5602.50
2019-06-15T12:27:27.975Z,5754.38
2019-06-15T12:28:28.017Z,5450.63
2019-06-15T12:29:28.065Z,3605.63
2019-06-15T12:30:28.097Z,4640.63
2019-06-15T12:31:28.142Z,4348.13
2019-06-15T12:32:28.181Z,4196.25
2019-06-15T12:33:28.225Z,3999.38